sensor_id;sensor_type;location;lat;lon;timestamp;P1;durP1;ratioP1;P2;durP2;ratioP2
72895;SDS011;61036;53.224;6.554;2022-10-19T00:02:11;5.87;;;1.73;;
72895;SDS011;61036;53.224;6.554;2022-10-19T00:04:37;5.70;;;1.77;;
72895;SDS011;61036;53.224;6.554;2022-10-19T00:07:02;4.43;;;1.53;;
72895;SDS011;61036;53.224;6.554;2022-10-19T00:09:28;6.27;;;1.53;;
72895;SDS011;61036;53.224;6.554;2022-10-19T00:11:53;4.00;;;1.33;;
72895;SDS011;61036;53.224;6.554;2022-10-19T00:14:20;7.07;;;1.77;;
72895;SDS011;61036;53.224;6.554;2022-10-19T00:16:51;5.53;;;1.60;;
72895;SDS011;61036;53.224;6.554;2022-10-19T00:19:22;5.93;;;1.67;;
72895;SDS011;61036;53.224;6.554;2022-10-19T00:21:50;5.53;;;1.60;;
72895;SDS011;61036;53.224;6.554;2022-10-19T00:24:16;4.13;;;1.20;;
72895;SDS011;61036;53.224;6.554;2022-10-19T00:26:43;5.60;;;1.50;;
72895;SDS011;61036;53.224;6.554;2022-10-19T00:29:10;4.73;;;1.73;;
72895;SDS011;61036;53.224;6.554;2022-10-19T00:31:37;8.37;;;1.80;;
72895;SDS011;61036;53.224;6.554;2022-10-19T00:34:03;5.17;;;1.40;;
72895;SDS011;61036;53.224;6.554;2022-10-19T00:36:31;5.47;;;1.40;;
72895;SDS011;61036;53.224;6.554;2022-10-19T00:38:58;4.10;;;1.40;;
72895;SDS011;61036;53.224;6.554;2022-10-19T00:41:25;4.43;;;1.60;;
72895;SDS011;61036;53.224;6.554;2022-10-19T00:43:58;4.93;;;1.43;;
72895;SDS011;61036;53.224;6.554;2022-10-19T00:46:25;4.30;;;1.07;;
72895;SDS011;61036;53.224;6.554;2022-10-19T00:48:53;10.67;;;3.30;;
72895;SDS011;61036;53.224;6.554;2022-10-19T00:51:22;8.40;;;1.67;;
72895;SDS011;61036;53.224;6.554;2022-10-19T00:53:49;5.67;;;1.47;;
72895;SDS011;61036;53.224;6.554;2022-10-19T00:56:15;9.13;;;1.43;;
72895;SDS011;61036;53.224;6.554;2022-10-19T00:58:42;5.67;;;1.60;;
72895;SDS011;61036;53.224;6.554;2022-10-19T01:01:08;3.63;;;1.20;;
72895;SDS011;61036;53.224;6.554;2022-10-19T01:03:38;4.47;;;1.30;;
72895;SDS011;61036;53.224;6.554;2022-10-19T01:06:07;4.47;;;1.40;;
72895;SDS011;61036;53.224;6.554;2022-10-19T01:08:34;2.97;;;1.20;;
72895;SDS011;61036;53.224;6.554;2022-10-19T01:13:45;4.23;;;1.20;;
72895;SDS011;61036;53.224;6.554;2022-10-19T01:16:22;5.33;;;1.27;;
72895;SDS011;61036;53.224;6.554;2022-10-19T01:22:28;4.67;;;1.40;;
72895;SDS011;61036;53.224;6.554;2022-10-19T01:25:31;4.13;;;1.30;;
72895;SDS011;61036;53.224;6.554;2022-10-19T01:46:54;5.40;;;1.00;;
72895;SDS011;61036;53.224;6.554;2022-10-19T01:49:28;5.37;;;1.37;;
72895;SDS011;61036;53.224;6.554;2022-10-19T01:52:02;4.93;;;1.13;;
72895;SDS011;61036;53.224;6.554;2022-10-19T01:54:31;6.13;;;1.50;;
72895;SDS011;61036;53.224;6.554;2022-10-19T01:57:02;6.00;;;1.50;;
72895;SDS011;61036;53.224;6.554;2022-10-19T01:59:31;4.07;;;1.10;;
72895;SDS011;61036;53.224;6.554;2022-10-19T02:01:58;3.20;;;1.00;;
72895;SDS011;61036;53.224;6.554;2022-10-19T02:04:24;4.33;;;1.30;;
72895;SDS011;61036;53.224;6.554;2022-10-19T02:06:51;5.63;;;1.20;;
72895;SDS011;61036;53.224;6.554;2022-10-19T02:09:18;3.27;;;1.13;;
72895;SDS011;61036;53.224;6.554;2022-10-19T02:11:48;5.13;;;1.20;;
72895;SDS011;61036;53.224;6.554;2022-10-19T02:14:17;4.73;;;1.10;;
72895;SDS011;61036;53.224;6.554;2022-10-19T02:16:48;12.80;;;2.33;;
72895;SDS011;61036;53.224;6.554;2022-10-19T02:19:19;3.70;;;1.07;;
72895;SDS011;61036;53.224;6.554;2022-10-19T02:21:45;4.93;;;1.17;;
72895;SDS011;61036;53.224;6.554;2022-10-19T02:24:11;8.00;;;1.43;;
72895;SDS011;61036;53.224;6.554;2022-10-19T02:26:37;6.10;;;1.60;;
72895;SDS011;61036;53.224;6.554;2022-10-19T02:29:03;5.83;;;1.40;;
72895;SDS011;61036;53.224;6.554;2022-10-19T02:31:30;6.37;;;1.53;;
72895;SDS011;61036;53.224;6.554;2022-10-19T02:33:56;7.40;;;1.50;;
72895;SDS011;61036;53.224;6.554;2022-10-19T02:36:25;6.00;;;1.67;;
72895;SDS011;61036;53.224;6.554;2022-10-19T02:38:52;3.87;;;1.40;;
72895;SDS011;61036;53.224;6.554;2022-10-19T02:41:33;6.57;;;1.50;;
72895;SDS011;61036;53.224;6.554;2022-10-19T02:44:09;7.70;;;1.67;;
72895;SDS011;61036;53.224;6.554;2022-10-19T02:46:43;5.87;;;1.37;;
72895;SDS011;61036;53.224;6.554;2022-10-19T02:49:12;5.73;;;1.57;;
72895;SDS011;61036;53.224;6.554;2022-10-19T02:51:40;6.00;;;1.33;;
72895;SDS011;61036;53.224;6.554;2022-10-19T02:54:22;6.80;;;1.80;;
72895;SDS011;61036;53.224;6.554;2022-10-19T02:56:47;7.07;;;1.60;;
72895;SDS011;61036;53.224;6.554;2022-10-19T02:59:13;6.20;;;1.30;;
72895;SDS011;61036;53.224;6.554;2022-10-19T03:01:39;7.73;;;1.73;;
72895;SDS011;61036;53.224;6.554;2022-10-19T03:04:05;7.20;;;1.63;;
72895;SDS011;61036;53.224;6.554;2022-10-19T03:06:30;9.30;;;1.50;;
72895;SDS011;61036;53.224;6.554;2022-10-19T03:08:56;8.03;;;1.53;;
72895;SDS011;61036;53.224;6.554;2022-10-19T03:11:22;8.47;;;1.80;;
72895;SDS011;61036;53.224;6.554;2022-10-19T03:13:47;8.90;;;2.00;;
72895;SDS011;61036;53.224;6.554;2022-10-19T03:16:13;9.00;;;1.93;;
72895;SDS011;61036;53.224;6.554;2022-10-19T03:18:39;6.63;;;1.83;;
72895;SDS011;61036;53.224;6.554;2022-10-19T03:21:06;6.33;;;1.50;;
72895;SDS011;61036;53.224;6.554;2022-10-19T03:23:34;6.43;;;2.00;;
72895;SDS011;61036;53.224;6.554;2022-10-19T03:26:01;7.83;;;1.57;;
72895;SDS011;61036;53.224;6.554;2022-10-19T03:28:27;7.50;;;1.70;;
72895;SDS011;61036;53.224;6.554;2022-10-19T03:30:52;6.30;;;1.63;;
72895;SDS011;61036;53.224;6.554;2022-10-19T03:33:18;5.70;;;1.63;;
72895;SDS011;61036;53.224;6.554;2022-10-19T03:35:44;8.63;;;1.67;;
72895;SDS011;61036;53.224;6.554;2022-10-19T03:38:10;5.07;;;1.77;;
72895;SDS011;61036;53.224;6.554;2022-10-19T03:40:36;7.63;;;1.60;;
72895;SDS011;61036;53.224;6.554;2022-10-19T03:43:02;8.13;;;2.20;;
72895;SDS011;61036;53.224;6.554;2022-10-19T03:45:29;5.97;;;1.40;;
72895;SDS011;61036;53.224;6.554;2022-10-19T03:47:55;8.17;;;2.13;;
72895;SDS011;61036;53.224;6.554;2022-10-19T03:50:20;5.17;;;1.50;;
72895;SDS011;61036;53.224;6.554;2022-10-19T03:52:46;5.43;;;1.50;;
72895;SDS011;61036;53.224;6.554;2022-10-19T03:55:15;5.73;;;1.70;;
72895;SDS011;61036;53.224;6.554;2022-10-19T03:57:41;7.10;;;1.47;;
72895;SDS011;61036;53.224;6.554;2022-10-19T04:00:09;8.77;;;2.07;;
72895;SDS011;61036;53.224;6.554;2022-10-19T04:02:38;6.87;;;1.33;;
72895;SDS011;61036;53.224;6.554;2022-10-19T04:05:04;6.97;;;1.50;;
72895;SDS011;61036;53.224;6.554;2022-10-19T04:07:32;5.67;;;1.30;;
72895;SDS011;61036;53.224;6.554;2022-10-19T04:09:59;7.73;;;1.93;;
72895;SDS011;61036;53.224;6.554;2022-10-19T04:12:25;6.53;;;1.53;;
72895;SDS011;61036;53.224;6.554;2022-10-19T04:14:52;4.90;;;1.40;;
72895;SDS011;61036;53.224;6.554;2022-10-19T04:17:17;11.63;;;1.73;;
72895;SDS011;61036;53.224;6.554;2022-10-19T04:19:46;6.20;;;1.47;;
72895;SDS011;61036;53.224;6.554;2022-10-19T04:22:12;8.03;;;1.97;;
72895;SDS011;61036;53.224;6.554;2022-10-19T04:24:38;7.73;;;1.43;;
72895;SDS011;61036;53.224;6.554;2022-10-19T04:27:04;10.93;;;2.40;;
72895;SDS011;61036;53.224;6.554;2022-10-19T04:29:30;6.00;;;1.63;;
72895;SDS011;61036;53.224;6.554;2022-10-19T04:31:56;8.37;;;1.83;;
72895;SDS011;61036;53.224;6.554;2022-10-19T04:34:22;8.03;;;1.80;;
72895;SDS011;61036;53.224;6.554;2022-10-19T04:36:49;10.67;;;2.13;;
72895;SDS011;61036;53.224;6.554;2022-10-19T04:39:15;9.63;;;1.80;;
72895;SDS011;61036;53.224;6.554;2022-10-19T04:41:44;6.30;;;1.70;;
72895;SDS011;61036;53.224;6.554;2022-10-19T04:44:10;6.63;;;1.60;;
72895;SDS011;61036;53.224;6.554;2022-10-19T04:46:36;5.27;;;1.17;;
72895;SDS011;61036;53.224;6.554;2022-10-19T04:49:06;6.33;;;1.67;;
72895;SDS011;61036;53.224;6.554;2022-10-19T04:51:32;5.23;;;1.50;;
72895;SDS011;61036;53.224;6.554;2022-10-19T04:53:58;9.63;;;1.90;;
72895;SDS011;61036;53.224;6.554;2022-10-19T04:56:26;10.50;;;2.57;;
72895;SDS011;61036;53.224;6.554;2022-10-19T04:58:54;8.30;;;1.57;;
72895;SDS011;61036;53.224;6.554;2022-10-19T05:01:21;6.37;;;1.63;;
72895;SDS011;61036;53.224;6.554;2022-10-19T05:03:55;9.57;;;1.83;;
72895;SDS011;61036;53.224;6.554;2022-10-19T05:06:26;9.60;;;1.83;;
72895;SDS011;61036;53.224;6.554;2022-10-19T05:08:54;6.30;;;1.30;;
72895;SDS011;61036;53.224;6.554;2022-10-19T05:11:21;6.63;;;1.47;;
72895;SDS011;61036;53.224;6.554;2022-10-19T05:13:46;8.73;;;1.90;;
72895;SDS011;61036;53.224;6.554;2022-10-19T05:16:17;7.67;;;1.60;;
72895;SDS011;61036;53.224;6.554;2022-10-19T05:18:50;8.20;;;2.00;;
72895;SDS011;61036;53.224;6.554;2022-10-19T05:21:20;6.13;;;1.50;;
72895;SDS011;61036;53.224;6.554;2022-10-19T05:23:49;7.60;;;1.70;;
72895;SDS011;61036;53.224;6.554;2022-10-19T05:26:17;8.90;;;1.50;;
72895;SDS011;61036;53.224;6.554;2022-10-19T05:28:54;6.63;;;1.60;;
72895;SDS011;61036;53.224;6.554;2022-10-19T05:31:26;6.57;;;1.57;;
72895;SDS011;61036;53.224;6.554;2022-10-19T05:33:56;8.70;;;1.50;;
72895;SDS011;61036;53.224;6.554;2022-10-19T05:36:23;9.83;;;1.97;;
72895;SDS011;61036;53.224;6.554;2022-10-19T05:39:00;8.00;;;1.50;;
72895;SDS011;61036;53.224;6.554;2022-10-19T05:41:45;8.23;;;2.20;;
72895;SDS011;61036;53.224;6.554;2022-10-19T05:44:16;8.83;;;1.47;;
72895;SDS011;61036;53.224;6.554;2022-10-19T05:46:45;6.03;;;1.53;;
72895;SDS011;61036;53.224;6.554;2022-10-19T05:49:14;10.27;;;1.97;;
72895;SDS011;61036;53.224;6.554;2022-10-19T05:51:41;8.63;;;2.40;;
72895;SDS011;61036;53.224;6.554;2022-10-19T05:54:08;6.27;;;1.90;;
72895;SDS011;61036;53.224;6.554;2022-10-19T05:56:35;6.07;;;1.83;;
72895;SDS011;61036;53.224;6.554;2022-10-19T05:59:02;7.23;;;1.63;;
72895;SDS011;61036;53.224;6.554;2022-10-19T06:01:29;7.83;;;1.73;;
72895;SDS011;61036;53.224;6.554;2022-10-19T06:03:57;5.23;;;1.40;;
72895;SDS011;61036;53.224;6.554;2022-10-19T06:06:24;5.37;;;1.40;;
72895;SDS011;61036;53.224;6.554;2022-10-19T06:08:51;8.63;;;1.53;;
72895;SDS011;61036;53.224;6.554;2022-10-19T06:11:21;6.20;;;1.60;;
72895;SDS011;61036;53.224;6.554;2022-10-19T06:13:49;6.40;;;1.87;;
72895;SDS011;61036;53.224;6.554;2022-10-19T06:16:18;9.13;;;2.23;;
72895;SDS011;61036;53.224;6.554;2022-10-19T06:18:45;6.97;;;1.60;;
72895;SDS011;61036;53.224;6.554;2022-10-19T06:21:13;9.83;;;1.80;;
72895;SDS011;61036;53.224;6.554;2022-10-19T06:23:42;6.53;;;1.63;;
72895;SDS011;61036;53.224;6.554;2022-10-19T06:26:09;7.53;;;1.77;;
72895;SDS011;61036;53.224;6.554;2022-10-19T06:28:37;6.90;;;1.70;;
72895;SDS011;61036;53.224;6.554;2022-10-19T06:31:04;8.60;;;2.30;;
72895;SDS011;61036;53.224;6.554;2022-10-19T06:33:30;5.97;;;1.77;;
72895;SDS011;61036;53.224;6.554;2022-10-19T06:38:35;12.40;;;1.97;;
72895;SDS011;61036;53.224;6.554;2022-10-19T06:41:01;11.47;;;2.03;;
72895;SDS011;61036;53.224;6.554;2022-10-19T06:43:26;7.17;;;1.70;;
72895;SDS011;61036;53.224;6.554;2022-10-19T06:45:52;7.97;;;1.77;;
72895;SDS011;61036;53.224;6.554;2022-10-19T06:48:19;12.07;;;2.10;;
72895;SDS011;61036;53.224;6.554;2022-10-19T06:50:54;7.33;;;1.67;;
72895;SDS011;61036;53.224;6.554;2022-10-19T06:53:20;8.63;;;2.27;;
72895;SDS011;61036;53.224;6.554;2022-10-19T06:55:45;10.03;;;1.83;;
72895;SDS011;61036;53.224;6.554;2022-10-19T06:58:13;7.97;;;2.00;;
72895;SDS011;61036;53.224;6.554;2022-10-19T07:00:39;9.73;;;1.80;;
72895;SDS011;61036;53.224;6.554;2022-10-19T07:03:05;6.97;;;1.70;;
72895;SDS011;61036;53.224;6.554;2022-10-19T07:05:30;7.83;;;1.90;;
72895;SDS011;61036;53.224;6.554;2022-10-19T07:07:58;7.83;;;1.67;;
72895;SDS011;61036;53.224;6.554;2022-10-19T07:10:24;5.13;;;1.63;;
72895;SDS011;61036;53.224;6.554;2022-10-19T07:12:49;7.47;;;1.50;;
72895;SDS011;61036;53.224;6.554;2022-10-19T07:15:16;7.43;;;1.87;;
72895;SDS011;61036;53.224;6.554;2022-10-19T07:17:41;7.53;;;1.83;;
72895;SDS011;61036;53.224;6.554;2022-10-19T07:20:07;10.03;;;2.13;;
72895;SDS011;61036;53.224;6.554;2022-10-19T07:22:34;8.40;;;2.23;;
72895;SDS011;61036;53.224;6.554;2022-10-19T07:25:03;6.90;;;1.70;;
72895;SDS011;61036;53.224;6.554;2022-10-19T07:27:29;7.33;;;1.80;;
72895;SDS011;61036;53.224;6.554;2022-10-19T07:29:55;9.77;;;1.80;;
72895;SDS011;61036;53.224;6.554;2022-10-19T07:32:22;13.07;;;2.37;;
72895;SDS011;61036;53.224;6.554;2022-10-19T07:34:52;6.63;;;1.57;;
72895;SDS011;61036;53.224;6.554;2022-10-19T07:37:18;6.33;;;1.50;;
72895;SDS011;61036;53.224;6.554;2022-10-19T07:39:43;9.73;;;2.50;;
72895;SDS011;61036;53.224;6.554;2022-10-19T07:42:12;8.30;;;1.87;;
72895;SDS011;61036;53.224;6.554;2022-10-19T07:44:37;9.97;;;1.60;;
72895;SDS011;61036;53.224;6.554;2022-10-19T07:47:03;7.37;;;1.50;;
72895;SDS011;61036;53.224;6.554;2022-10-19T07:49:30;6.33;;;1.40;;
72895;SDS011;61036;53.224;6.554;2022-10-19T07:51:56;7.10;;;2.13;;
72895;SDS011;61036;53.224;6.554;2022-10-19T07:54:23;5.27;;;1.33;;
72895;SDS011;61036;53.224;6.554;2022-10-19T07:56:49;6.73;;;1.83;;
72895;SDS011;61036;53.224;6.554;2022-10-19T07:59:15;7.80;;;1.60;;
72895;SDS011;61036;53.224;6.554;2022-10-19T08:01:41;8.47;;;1.50;;
72895;SDS011;61036;53.224;6.554;2022-10-19T08:04:08;5.67;;;1.67;;
72895;SDS011;61036;53.224;6.554;2022-10-19T08:06:35;10.10;;;1.87;;
72895;SDS011;61036;53.224;6.554;2022-10-19T08:09:02;6.67;;;1.60;;
72895;SDS011;61036;53.224;6.554;2022-10-19T08:11:32;7.10;;;1.67;;
72895;SDS011;61036;53.224;6.554;2022-10-19T08:13:59;11.13;;;1.90;;
72895;SDS011;61036;53.224;6.554;2022-10-19T08:16:30;6.73;;;1.70;;
72895;SDS011;61036;53.224;6.554;2022-10-19T08:19:11;8.90;;;2.30;;
72895;SDS011;61036;53.224;6.554;2022-10-19T08:21:39;5.93;;;1.80;;
72895;SDS011;61036;53.224;6.554;2022-10-19T08:24:06;9.97;;;2.60;;
72895;SDS011;61036;53.224;6.554;2022-10-19T08:26:33;9.17;;;3.40;;
72895;SDS011;61036;53.224;6.554;2022-10-19T08:29:02;9.47;;;3.03;;
72895;SDS011;61036;53.224;6.554;2022-10-19T08:31:31;6.23;;;1.50;;
72895;SDS011;61036;53.224;6.554;2022-10-19T08:33:58;7.43;;;1.47;;
72895;SDS011;61036;53.224;6.554;2022-10-19T08:36:24;7.93;;;2.17;;
72895;SDS011;61036;53.224;6.554;2022-10-19T08:38:50;9.37;;;2.20;;
72895;SDS011;61036;53.224;6.554;2022-10-19T08:49:07;8.53;;;1.87;;
72895;SDS011;61036;53.224;6.554;2022-10-19T08:51:43;10.17;;;1.73;;
72895;SDS011;61036;53.224;6.554;2022-10-19T08:54:15;6.97;;;1.70;;
72895;SDS011;61036;53.224;6.554;2022-10-19T08:56:46;6.67;;;1.77;;
72895;SDS011;61036;53.224;6.554;2022-10-19T08:59:20;8.27;;;1.80;;
72895;SDS011;61036;53.224;6.554;2022-10-19T09:02:15;9.60;;;1.50;;
72895;SDS011;61036;53.224;6.554;2022-10-19T09:04:56;8.33;;;1.80;;
72895;SDS011;61036;53.224;6.554;2022-10-19T09:07:28;6.70;;;1.90;;
72895;SDS011;61036;53.224;6.554;2022-10-19T09:12:50;7.43;;;1.80;;
72895;SDS011;61036;53.224;6.554;2022-10-19T09:15:35;8.80;;;2.40;;
72895;SDS011;61036;53.224;6.554;2022-10-19T09:18:12;8.27;;;1.60;;
72895;SDS011;61036;53.224;6.554;2022-10-19T09:20:49;10.53;;;2.03;;
72895;SDS011;61036;53.224;6.554;2022-10-19T09:23:35;11.73;;;2.27;;
72895;SDS011;61036;53.224;6.554;2022-10-19T09:26:04;6.63;;;1.57;;
72895;SDS011;61036;53.224;6.554;2022-10-19T09:28:45;9.03;;;2.17;;
72895;SDS011;61036;53.224;6.554;2022-10-19T09:34:01;10.47;;;2.57;;
72895;SDS011;61036;53.224;6.554;2022-10-19T09:36:34;8.00;;;2.03;;
72895;SDS011;61036;53.224;6.554;2022-10-19T09:39:04;6.57;;;1.57;;
72895;SDS011;61036;53.224;6.554;2022-10-19T09:41:30;10.47;;;2.33;;
72895;SDS011;61036;53.224;6.554;2022-10-19T09:43:56;8.43;;;2.27;;
72895;SDS011;61036;53.224;6.554;2022-10-19T09:46:34;8.03;;;1.80;;
72895;SDS011;61036;53.224;6.554;2022-10-19T09:49:06;6.03;;;1.60;;
72895;SDS011;61036;53.224;6.554;2022-10-19T09:51:46;6.70;;;1.70;;
72895;SDS011;61036;53.224;6.554;2022-10-19T09:54:30;7.93;;;1.77;;
72895;SDS011;61036;53.224;6.554;2022-10-19T09:57:02;6.70;;;1.50;;
72895;SDS011;61036;53.224;6.554;2022-10-19T09:59:31;8.60;;;1.87;;
72895;SDS011;61036;53.224;6.554;2022-10-19T10:02:11;7.40;;;1.57;;
72895;SDS011;61036;53.224;6.554;2022-10-19T10:04:39;6.47;;;1.60;;
72895;SDS011;61036;53.224;6.554;2022-10-19T10:07:05;6.57;;;1.63;;
72895;SDS011;61036;53.224;6.554;2022-10-19T10:09:38;7.13;;;1.70;;
72895;SDS011;61036;53.224;6.554;2022-10-19T10:12:10;6.60;;;1.43;;
72895;SDS011;61036;53.224;6.554;2022-10-19T10:14:41;5.83;;;1.30;;
72895;SDS011;61036;53.224;6.554;2022-10-19T10:17:14;9.67;;;2.03;;
72895;SDS011;61036;53.224;6.554;2022-10-19T10:22:27;6.00;;;1.53;;
72895;SDS011;61036;53.224;6.554;2022-10-19T10:24:56;8.00;;;1.80;;
72895;SDS011;61036;53.224;6.554;2022-10-19T10:27:30;8.57;;;1.80;;
72895;SDS011;61036;53.224;6.554;2022-10-19T10:30:04;9.87;;;1.93;;
72895;SDS011;61036;53.224;6.554;2022-10-19T10:32:35;7.97;;;2.07;;
72895;SDS011;61036;53.224;6.554;2022-10-19T10:35:05;7.57;;;1.87;;
72895;SDS011;61036;53.224;6.554;2022-10-19T10:37:41;9.60;;;1.60;;
72895;SDS011;61036;53.224;6.554;2022-10-19T10:40:18;5.63;;;1.23;;
72895;SDS011;61036;53.224;6.554;2022-10-19T10:42:47;7.70;;;1.80;;
72895;SDS011;61036;53.224;6.554;2022-10-19T10:45:25;5.70;;;1.30;;
72895;SDS011;61036;53.224;6.554;2022-10-19T10:47:55;9.03;;;1.57;;
72895;SDS011;61036;53.224;6.554;2022-10-19T10:50:23;10.50;;;2.00;;
72895;SDS011;61036;53.224;6.554;2022-10-19T10:52:57;8.27;;;1.70;;
72895;SDS011;61036;53.224;6.554;2022-10-19T10:55:28;4.63;;;1.30;;
72895;SDS011;61036;53.224;6.554;2022-10-19T10:58:04;6.73;;;2.17;;
72895;SDS011;61036;53.224;6.554;2022-10-19T11:00:39;5.20;;;2.00;;
72895;SDS011;61036;53.224;6.554;2022-10-19T11:03:13;6.93;;;1.53;;
72895;SDS011;61036;53.224;6.554;2022-10-19T11:05:45;6.97;;;1.63;;
72895;SDS011;61036;53.224;6.554;2022-10-19T11:11:10;8.93;;;2.20;;
72895;SDS011;61036;53.224;6.554;2022-10-19T11:13:47;7.67;;;1.33;;
72895;SDS011;61036;53.224;6.554;2022-10-19T11:16:38;8.87;;;1.90;;
72895;SDS011;61036;53.224;6.554;2022-10-19T11:19:12;6.60;;;1.87;;
72895;SDS011;61036;53.224;6.554;2022-10-19T11:30:27;8.33;;;1.73;;
72895;SDS011;61036;53.224;6.554;2022-10-19T11:33:06;7.97;;;2.50;;
72895;SDS011;61036;53.224;6.554;2022-10-19T11:39:09;6.93;;;1.37;;
72895;SDS011;61036;53.224;6.554;2022-10-19T11:50:35;6.27;;;1.50;;
72895;SDS011;61036;53.224;6.554;2022-10-19T11:59:06;8.13;;;1.63;;
72895;SDS011;61036;53.224;6.554;2022-10-19T12:04:28;6.53;;;2.07;;
72895;SDS011;61036;53.224;6.554;2022-10-19T12:12:43;9.60;;;2.00;;
72895;SDS011;61036;53.224;6.554;2022-10-19T12:15:17;8.23;;;2.17;;
72895;SDS011;61036;53.224;6.554;2022-10-19T12:17:51;10.10;;;2.67;;
72895;SDS011;61036;53.224;6.554;2022-10-19T12:22:56;10.90;;;1.57;;
72895;SDS011;61036;53.224;6.554;2022-10-19T12:25:23;9.63;;;1.60;;
72895;SDS011;61036;53.224;6.554;2022-10-19T12:27:53;8.20;;;1.53;;
72895;SDS011;61036;53.224;6.554;2022-10-19T12:30:21;8.47;;;1.63;;
72895;SDS011;61036;53.224;6.554;2022-10-19T12:32:54;8.37;;;2.10;;
72895;SDS011;61036;53.224;6.554;2022-10-19T12:35:32;6.10;;;1.57;;
72895;SDS011;61036;53.224;6.554;2022-10-19T12:38:15;7.07;;;1.47;;
72895;SDS011;61036;53.224;6.554;2022-10-19T12:41:04;6.30;;;1.93;;
72895;SDS011;61036;53.224;6.554;2022-10-19T12:43:42;7.87;;;2.00;;
72895;SDS011;61036;53.224;6.554;2022-10-19T12:46:30;10.07;;;2.17;;
72895;SDS011;61036;53.224;6.554;2022-10-19T12:51:56;8.73;;;2.47;;
72895;SDS011;61036;53.224;6.554;2022-10-19T12:54:24;6.23;;;1.87;;
72895;SDS011;61036;53.224;6.554;2022-10-19T12:56:54;6.43;;;2.10;;
72895;SDS011;61036;53.224;6.554;2022-10-19T12:59:22;5.40;;;1.80;;
72895;SDS011;61036;53.224;6.554;2022-10-19T13:01:52;8.63;;;2.20;;
72895;SDS011;61036;53.224;6.554;2022-10-19T13:04:20;6.83;;;1.77;;
72895;SDS011;61036;53.224;6.554;2022-10-19T13:06:57;6.73;;;1.63;;
72895;SDS011;61036;53.224;6.554;2022-10-19T13:38:32;5.90;;;1.90;;
72895;SDS011;61036;53.224;6.554;2022-10-19T14:11:18;8.60;;;1.80;;
72895;SDS011;61036;53.224;6.554;2022-10-19T14:16:46;8.77;;;2.43;;
72895;SDS011;61036;53.224;6.554;2022-10-19T14:19:52;6.47;;;1.80;;
72895;SDS011;61036;53.224;6.554;2022-10-19T14:22:26;6.97;;;2.00;;
72895;SDS011;61036;53.224;6.554;2022-10-19T14:24:59;8.63;;;1.97;;
72895;SDS011;61036;53.224;6.554;2022-10-19T14:27:40;8.80;;;2.10;;
72895;SDS011;61036;53.224;6.554;2022-10-19T14:30:15;7.03;;;1.80;;
72895;SDS011;61036;53.224;6.554;2022-10-19T14:32:47;7.37;;;2.33;;
72895;SDS011;61036;53.224;6.554;2022-10-19T14:35:19;8.17;;;2.20;;
72895;SDS011;61036;53.224;6.554;2022-10-19T14:37:49;6.67;;;1.83;;
72895;SDS011;61036;53.224;6.554;2022-10-19T14:42:50;7.10;;;2.20;;
72895;SDS011;61036;53.224;6.554;2022-10-19T14:45:20;8.23;;;2.17;;
72895;SDS011;61036;53.224;6.554;2022-10-19T14:47:55;8.77;;;1.80;;
72895;SDS011;61036;53.224;6.554;2022-10-19T14:50:45;4.83;;;1.83;;
72895;SDS011;61036;53.224;6.554;2022-10-19T14:55:56;14.17;;;3.83;;
72895;SDS011;61036;53.224;6.554;2022-10-19T14:58:25;10.70;;;2.27;;
72895;SDS011;61036;53.224;6.554;2022-10-19T15:01:00;5.80;;;2.17;;
72895;SDS011;61036;53.224;6.554;2022-10-19T15:03:26;8.60;;;2.43;;
72895;SDS011;61036;53.224;6.554;2022-10-19T15:06:01;5.30;;;2.27;;
72895;SDS011;61036;53.224;6.554;2022-10-19T15:10:59;7.73;;;3.00;;
72895;SDS011;61036;53.224;6.554;2022-10-19T15:13:30;9.63;;;2.30;;
72895;SDS011;61036;53.224;6.554;2022-10-19T15:15:58;6.50;;;2.33;;
72895;SDS011;61036;53.224;6.554;2022-10-19T15:18:24;10.63;;;2.87;;
72895;SDS011;61036;53.224;6.554;2022-10-19T15:21:04;11.53;;;3.70;;
72895;SDS011;61036;53.224;6.554;2022-10-19T15:28:40;8.80;;;3.23;;
72895;SDS011;61036;53.224;6.554;2022-10-19T15:31:14;7.93;;;3.40;;
72895;SDS011;61036;53.224;6.554;2022-10-19T15:33:53;10.53;;;4.10;;
72895;SDS011;61036;53.224;6.554;2022-10-19T15:36:22;10.73;;;4.10;;
72895;SDS011;61036;53.224;6.554;2022-10-19T15:42:19;10.53;;;4.60;;
72895;SDS011;61036;53.224;6.554;2022-10-19T15:44:46;10.27;;;4.33;;
72895;SDS011;61036;53.224;6.554;2022-10-19T15:52:18;8.87;;;4.60;;
72895;SDS011;61036;53.224;6.554;2022-10-19T15:54:53;8.67;;;4.77;;
72895;SDS011;61036;53.224;6.554;2022-10-19T15:57:30;7.30;;;4.00;;
72895;SDS011;61036;53.224;6.554;2022-10-19T16:00:05;8.03;;;4.37;;
72895;SDS011;61036;53.224;6.554;2022-10-19T16:02:36;5.53;;;3.77;;
72895;SDS011;61036;53.224;6.554;2022-10-19T16:05:03;10.07;;;4.53;;
72895;SDS011;61036;53.224;6.554;2022-10-19T16:07:29;8.10;;;4.10;;
72895;SDS011;61036;53.224;6.554;2022-10-19T16:09:56;6.73;;;4.00;;
72895;SDS011;61036;53.224;6.554;2022-10-19T16:12:25;7.97;;;4.30;;
72895;SDS011;61036;53.224;6.554;2022-10-19T16:14:51;8.73;;;4.67;;
72895;SDS011;61036;53.224;6.554;2022-10-19T16:17:18;8.17;;;4.80;;
72895;SDS011;61036;53.224;6.554;2022-10-19T16:19:47;10.40;;;5.50;;
72895;SDS011;61036;53.224;6.554;2022-10-19T16:22:14;12.73;;;5.70;;
72895;SDS011;61036;53.224;6.554;2022-10-19T16:24:40;10.87;;;5.63;;
72895;SDS011;61036;53.224;6.554;2022-10-19T16:27:07;9.37;;;4.57;;
72895;SDS011;61036;53.224;6.554;2022-10-19T16:29:35;15.37;;;5.00;;
72895;SDS011;61036;53.224;6.554;2022-10-19T16:32:01;10.73;;;5.90;;
72895;SDS011;61036;53.224;6.554;2022-10-19T16:34:27;10.60;;;5.27;;
72895;SDS011;61036;53.224;6.554;2022-10-19T16:36:53;9.73;;;5.33;;
72895;SDS011;61036;53.224;6.554;2022-10-19T16:39:19;11.63;;;6.07;;
72895;SDS011;61036;53.224;6.554;2022-10-19T16:41:44;8.50;;;6.07;;
72895;SDS011;61036;53.224;6.554;2022-10-19T16:44:11;9.70;;;6.33;;
72895;SDS011;61036;53.224;6.554;2022-10-19T16:46:36;12.13;;;6.00;;
72895;SDS011;61036;53.224;6.554;2022-10-19T16:49:05;12.30;;;6.03;;
72895;SDS011;61036;53.224;6.554;2022-10-19T16:54:06;11.77;;;6.07;;
72895;SDS011;61036;53.224;6.554;2022-10-19T16:56:34;10.77;;;6.10;;
72895;SDS011;61036;53.224;6.554;2022-10-19T16:59:02;13.40;;;6.23;;
72895;SDS011;61036;53.224;6.554;2022-10-19T17:01:29;11.90;;;7.00;;
72895;SDS011;61036;53.224;6.554;2022-10-19T17:03:55;13.43;;;7.20;;
72895;SDS011;61036;53.224;6.554;2022-10-19T17:06:21;14.37;;;8.00;;
72895;SDS011;61036;53.224;6.554;2022-10-19T17:08:47;13.23;;;7.27;;
72895;SDS011;61036;53.224;6.554;2022-10-19T17:13:49;11.47;;;7.00;;
72895;SDS011;61036;53.224;6.554;2022-10-19T17:16:16;14.63;;;7.03;;
72895;SDS011;61036;53.224;6.554;2022-10-19T17:18:46;12.10;;;6.30;;
72895;SDS011;61036;53.224;6.554;2022-10-19T17:21:13;12.13;;;6.70;;
72895;SDS011;61036;53.224;6.554;2022-10-19T17:23:42;10.30;;;5.90;;
72895;SDS011;61036;53.224;6.554;2022-10-19T17:26:08;11.27;;;5.70;;
72895;SDS011;61036;53.224;6.554;2022-10-19T17:28:35;12.37;;;5.90;;
72895;SDS011;61036;53.224;6.554;2022-10-19T17:31:06;8.20;;;5.37;;
72895;SDS011;61036;53.224;6.554;2022-10-19T17:33:33;10.97;;;5.93;;
72895;SDS011;61036;53.224;6.554;2022-10-19T17:36:04;12.30;;;6.47;;
72895;SDS011;61036;53.224;6.554;2022-10-19T17:38:34;8.37;;;5.53;;
72895;SDS011;61036;53.224;6.554;2022-10-19T17:41:05;10.93;;;5.10;;
72895;SDS011;61036;53.224;6.554;2022-10-19T17:43:32;10.43;;;6.10;;
72895;SDS011;61036;53.224;6.554;2022-10-19T17:46:01;11.37;;;5.63;;
72895;SDS011;61036;53.224;6.554;2022-10-19T17:48:30;11.37;;;5.10;;
72895;SDS011;61036;53.224;6.554;2022-10-19T17:51:01;9.67;;;4.93;;
72895;SDS011;61036;53.224;6.554;2022-10-19T17:53:32;7.77;;;4.80;;
72895;SDS011;61036;53.224;6.554;2022-10-19T17:56:03;8.43;;;4.20;;
72895;SDS011;61036;53.224;6.554;2022-10-19T17:58:31;8.30;;;4.40;;